MLU weather

Monroe Regional Airport
Monroe, Louisiana, United States

Public forecast

Using degrees Fahrenheit for public forecast. Weather courtesy of forecast.io.

METAR (pilot weather report)

Retrieved 2019/09/17 02:53 UTC (21 minutes ago):

KMLU 170253Z AUTO 00000KT 10SM CLR 27/21 A3000 RMK AO2 SLP157 T02720211 53014

TAF (pilot weather forecast)

Forecast is more than 12 hours old.

Retrieved 2019/09/16 00:39 UTC (1 day ago):

TAF KMLU 162336Z 1700/1724 VRB03KT P6SM FEW070 FM171600 08003KT P6SM FEW050 FM171900 12006KT P6SM SCT060 SCT100